createdAt,value
2022-10-24T00:01:26.277Z,19.60
2022-10-24T00:03:53.528Z,18.67
2022-10-24T00:06:23.658Z,19.20
2022-10-24T00:08:52.111Z,18.15
2022-10-24T00:11:26.647Z,19.65
2022-10-24T00:13:56.734Z,19.98
2022-10-24T00:16:23.921Z,20.15
2022-10-24T00:18:51.058Z,19.63
2022-10-24T00:21:18.413Z,19.88
2022-10-24T00:23:45.982Z,19.63
2022-10-24T00:26:14.436Z,19.88
2022-10-24T00:28:41.681Z,19.45
2022-10-24T00:31:13.749Z,20.27
2022-10-24T00:33:41.775Z,19.92
2022-10-24T00:36:19.656Z,19.42
2022-10-24T00:38:47.131Z,19.63
2022-10-24T00:41:36.196Z,19.58
2022-10-24T00:44:27.250Z,19.38
2022-10-24T00:47:23.474Z,18.38
2022-10-24T00:50:13.580Z,19.67
2022-10-24T00:52:47.737Z,20.67
2022-10-24T00:55:18.283Z,20.13
2022-10-24T00:58:15.487Z,19.17
2022-10-24T01:00:53.559Z,20.17
2022-10-24T01:03:28.891Z,21.00
2022-10-24T01:05:57.522Z,21.65
2022-10-24T01:08:50.420Z,21.48
2022-10-24T01:12:02.202Z,22.05
2022-10-24T01:15:23.514Z,21.70
2022-10-24T01:18:24.802Z,21.20
2022-10-24T01:21:29.665Z,21.52
2022-10-24T01:24:33.017Z,21.25
2022-10-24T01:27:54.208Z,22.58
2022-10-24T01:30:21.951Z,20.58
2022-10-24T01:33:16.020Z,18.77
2022-10-24T01:35:53.794Z,19.40
2022-10-24T01:38:45.917Z,16.73
2022-10-24T01:41:21.247Z,17.48
2022-10-24T01:44:05.209Z,17.13
2022-10-24T01:46:44.693Z,18.30
2022-10-24T01:49:20.719Z,17.75
2022-10-24T01:51:54.517Z,16.35
2022-10-24T01:54:22.015Z,17.35
2022-10-24T01:56:49.717Z,17.02
2022-10-24T01:59:29.013Z,18.20
2022-10-24T02:02:08.895Z,17.52
2022-10-24T02:04:47.210Z,18.48
2022-10-24T02:07:18.744Z,17.60
2022-10-24T02:09:50.888Z,16.80
2022-10-24T02:14:54.078Z,16.60
2022-10-24T02:17:22.397Z,18.13
2022-10-24T02:19:49.909Z,16.33
2022-10-24T02:22:54.804Z,16.63
2022-10-24T02:25:33.683Z,16.35
2022-10-24T02:28:11.599Z,17.35
2022-10-24T02:30:52.088Z,16.05
2022-10-24T02:33:19.982Z,17.35
2022-10-24T02:35:48.719Z,17.05
2022-10-24T02:38:17.670Z,15.93
2022-10-24T02:40:46.342Z,16.63
2022-10-24T02:43:14.775Z,17.85
2022-10-24T02:45:41.871Z,17.25
2022-10-24T02:48:15.823Z,17.80
2022-10-24T02:50:44.276Z,18.35
2022-10-24T02:53:18.914Z,18.63
2022-10-24T02:55:46.564Z,19.95
2022-10-24T02:58:13.596Z,19.48
2022-10-24T03:00:40.786Z,19.25
2022-10-24T03:03:08.003Z,20.27
2022-10-24T03:05:42.104Z,19.23
2022-10-24T03:08:12.894Z,19.33
2022-10-24T03:10:40.227Z,19.63
2022-10-24T03:13:07.286Z,18.38
2022-10-24T03:15:34.443Z,18.58
2022-10-24T03:18:03.983Z,19.30
2022-10-24T03:20:31.325Z,18.83
2022-10-24T03:23:01.797Z,19.67
2022-10-24T03:25:28.892Z,23.05
2022-10-24T03:27:55.958Z,22.10
2022-10-24T03:30:23.583Z,19.63
2022-10-24T03:32:50.732Z,18.52
2022-10-24T03:35:18.542Z,18.83
2022-10-24T03:37:45.823Z,17.80
2022-10-24T03:40:13.458Z,18.02
2022-10-24T03:42:40.743Z,19.13
2022-10-24T03:45:08.881Z,18.58
2022-10-24T03:47:36.119Z,18.77
2022-10-24T03:50:04.500Z,19.33
2022-10-24T03:52:31.874Z,18.15
2022-10-24T03:54:59.037Z,18.77
2022-10-24T03:57:26.370Z,19.17
2022-10-24T03:59:53.485Z,19.63
2022-10-24T04:02:20.690Z,19.40
2022-10-24T04:04:50.208Z,20.55
2022-10-24T04:07:17.356Z,19.05
2022-10-24T04:09:45.121Z,18.73
2022-10-24T04:12:14.603Z,19.25
2022-10-24T04:14:41.946Z,18.73
2022-10-24T04:17:12.031Z,19.23
2022-10-24T04:19:39.206Z,19.02
2022-10-24T04:22:09.060Z,17.10
2022-10-24T04:24:39.516Z,19.15
2022-10-24T04:28:08.522Z,16.98
2022-10-24T04:30:38.077Z,16.90
2022-10-24T04:33:05.210Z,17.08
2022-10-24T04:35:32.307Z,17.63
2022-10-24T04:37:59.479Z,18.02
2022-10-24T04:40:29.087Z,17.58
2022-10-24T04:42:56.665Z,16.45
2022-10-24T04:45:23.800Z,19.08
2022-10-24T04:47:50.863Z,17.50
2022-10-24T04:50:18.010Z,17.70
2022-10-24T04:52:45.078Z,16.75
2022-10-24T04:55:12.222Z,17.60
2022-10-24T04:57:39.397Z,15.57
2022-10-24T05:00:07.597Z,17.42
2022-10-24T05:02:34.680Z,16.80
2022-10-24T05:05:01.823Z,17.00
2022-10-24T05:07:31.277Z,17.20
2022-10-24T05:09:58.510Z,17.05
2022-10-24T05:12:25.724Z,15.65
2022-10-24T05:14:52.743Z,17.55
2022-10-24T05:17:19.868Z,17.15
2022-10-24T05:19:47.230Z,18.08
2022-10-24T05:22:14.369Z,16.98
2022-10-24T05:24:41.524Z,17.33
2022-10-24T05:27:08.592Z,17.50
2022-10-24T05:29:37.001Z,18.48
2022-10-24T05:32:08.097Z,18.25
2022-10-24T05:34:37.585Z,17.00
2022-10-24T05:37:05.696Z,18.85
2022-10-24T05:39:32.845Z,19.27
2022-10-24T05:41:59.963Z,19.30
2022-10-24T05:44:27.108Z,20.27
2022-10-24T05:46:54.406Z,25.95
2022-10-24T05:49:21.573Z,20.88
2022-10-24T05:51:48.801Z,19.75
2022-10-24T05:54:16.498Z,18.02
2022-10-24T05:56:43.544Z,18.48
2022-10-24T05:59:10.709Z,19.83
2022-10-24T06:01:40.829Z,21.50
2022-10-24T06:04:11.347Z,22.17
2022-10-24T06:06:44.698Z,19.40
2022-10-24T06:09:13.099Z,21.20
2022-10-24T06:11:40.403Z,19.50
2022-10-24T06:14:07.456Z,18.65
2022-10-24T06:16:35.121Z,19.45
2022-10-24T06:19:02.190Z,23.85
2022-10-24T06:21:29.424Z,20.88
2022-10-24T06:23:56.549Z,20.80
2022-10-24T06:26:26.180Z,18.48
2022-10-24T06:28:54.762Z,17.33
2022-10-24T06:31:21.929Z,19.38
2022-10-24T06:33:49.251Z,18.77
2022-10-24T06:36:16.357Z,19.55
2022-10-24T06:38:45.620Z,19.15
2022-10-24T06:41:17.108Z,17.20
2022-10-24T06:43:46.934Z,17.83
2022-10-24T06:46:16.796Z,17.50
2022-10-24T06:48:44.654Z,17.27
2022-10-24T06:51:16.216Z,16.30
2022-10-24T06:53:43.296Z,16.40
2022-10-24T06:56:10.520Z,17.80
2022-10-24T06:58:38.854Z,19.73
2022-10-24T07:01:17.733Z,21.33
2022-10-24T07:03:46.079Z,19.13
2022-10-24T07:11:28.111Z,15.27
2022-10-24T07:14:00.788Z,20.45
2022-10-24T07:16:29.643Z,18.67
2022-10-24T07:18:57.085Z,16.33
2022-10-24T07:21:29.793Z,15.85
2022-10-24T07:24:00.034Z,15.55
2022-10-24T07:26:31.191Z,14.00
2022-10-24T07:31:33.582Z,14.85
2022-10-24T07:34:03.680Z,13.70
2022-10-24T07:36:30.855Z,14.68
2022-10-24T07:38:59.978Z,13.50
2022-10-24T07:41:30.671Z,13.68
2022-10-24T07:44:00.052Z,13.07
2022-10-24T07:46:27.067Z,14.23
2022-10-24T07:48:58.209Z,16.27
2022-10-24T07:51:28.124Z,16.77
2022-10-24T07:53:56.496Z,14.73
2022-10-24T07:56:23.527Z,13.85
2022-10-24T07:58:50.670Z,13.20
2022-10-24T08:01:22.421Z,14.88
2022-10-24T08:03:49.864Z,14.88
2022-10-24T08:06:24.471Z,13.90
2022-10-24T08:08:51.703Z,12.80
2022-10-24T08:11:22.761Z,13.52
2022-10-24T08:13:53.989Z,12.95
2022-10-24T08:16:23.033Z,12.13
2022-10-24T08:18:52.552Z,11.80
2022-10-24T08:21:22.191Z,12.38
2022-10-24T08:23:52.586Z,11.73
2022-10-24T08:26:23.326Z,12.40
2022-10-24T08:28:51.553Z,12.57
2022-10-24T08:31:22.400Z,12.70
2022-10-24T08:33:55.845Z,12.63
2022-10-24T08:36:28.848Z,12.43
2022-10-24T08:38:59.069Z,11.15
2022-10-24T08:41:35.750Z,10.70
2022-10-24T08:44:35.745Z,10.70
2022-10-24T08:47:24.514Z,10.98
2022-10-24T08:50:10.168Z,12.40
2022-10-24T08:52:47.865Z,11.05
2022-10-24T08:55:44.400Z,10.95
2022-10-24T08:58:21.114Z,9.65
2022-10-24T09:00:52.532Z,10.52
2022-10-24T09:03:56.595Z,9.70
2022-10-24T09:06:31.610Z,9.80
2022-10-24T09:09:13.206Z,10.05
2022-10-24T09:11:54.999Z,8.90
2022-10-24T09:14:33.924Z,9.15
2022-10-24T09:17:33.441Z,9.50
2022-10-24T09:20:33.438Z,8.65
2022-10-24T09:23:04.672Z,8.98
2022-10-24T09:25:38.427Z,8.05
2022-10-24T09:28:06.955Z,7.95
2022-10-24T09:30:36.768Z,8.60
2022-10-24T09:33:31.442Z,7.80
2022-10-24T09:36:04.815Z,8.13
2022-10-24T09:38:38.610Z,7.47
2022-10-24T09:41:21.152Z,6.93
2022-10-24T09:43:57.169Z,7.78
2022-10-24T09:46:45.192Z,6.75
2022-10-24T09:49:22.761Z,7.03
2022-10-24T09:52:17.755Z,6.40
2022-10-24T09:54:46.482Z,6.78
2022-10-24T09:57:18.079Z,6.88
2022-10-24T09:59:59.151Z,6.25
2022-10-24T10:02:34.525Z,6.22
2022-10-24T10:05:04.349Z,6.05
2022-10-24T10:07:34.441Z,6.13
2022-10-24T10:10:08.093Z,5.78
2022-10-24T10:12:39.086Z,6.53
2022-10-24T10:15:30.877Z,6.80
2022-10-24T10:18:42.834Z,6.18
2022-10-24T10:21:20.010Z,5.70
2022-10-24T10:23:56.149Z,6.20
2022-10-24T10:26:58.854Z,6.47
2022-10-24T10:29:26.114Z,5.90
2022-10-24T10:32:22.768Z,6.00
2022-10-24T10:35:19.817Z,5.85
2022-10-24T10:37:58.967Z,6.15
2022-10-24T10:40:45.291Z,5.68
2022-10-24T10:43:37.369Z,5.65
2022-10-24T10:48:52.660Z,5.65
2022-10-24T10:51:31.614Z,5.78
2022-10-24T10:54:00.088Z,4.80
2022-10-24T10:57:03.046Z,4.45
2022-10-24T11:00:01.524Z,4.88
2022-10-24T11:02:52.171Z,4.80
2022-10-24T11:06:08.054Z,5.15
2022-10-24T11:08:42.130Z,4.80
2022-10-24T11:11:43.496Z,5.53
2022-10-24T11:14:31.801Z,5.03
2022-10-24T11:17:38.435Z,5.40
2022-10-24T11:20:48.241Z,5.32
2022-10-24T11:23:39.052Z,5.40
2022-10-24T11:26:40.304Z,5.03
2022-10-24T11:29:40.998Z,5.35
2022-10-24T11:32:24.057Z,5.35
2022-10-24T11:35:27.034Z,5.60
2022-10-24T11:38:24.620Z,5.63
2022-10-24T11:41:24.186Z,5.38
2022-10-24T11:43:55.114Z,5.47
2022-10-24T11:46:47.216Z,6.53
2022-10-24T11:49:39.642Z,5.25
2022-10-24T11:52:39.750Z,5.97
2022-10-24T11:55:24.066Z,6.20
2022-10-24T11:58:00.289Z,5.70
2022-10-24T12:00:56.513Z,5.88
2022-10-24T12:03:42.275Z,6.00
2022-10-24T12:06:30.785Z,6.38
2022-10-24T12:09:38.160Z,6.60
2022-10-24T12:12:13.525Z,5.53
2022-10-24T12:14:54.497Z,4.93
2022-10-24T12:18:34.030Z,5.47
2022-10-24T12:21:10.802Z,4.70
2022-10-24T12:23:40.323Z,5.55
2022-10-24T12:26:30.330Z,5.20
2022-10-24T12:29:04.107Z,5.18
2022-10-24T12:31:41.724Z,5.32
2022-10-24T12:34:22.911Z,5.82
2022-10-24T12:37:12.540Z,5.20
2022-10-24T12:39:47.598Z,4.45
2022-10-24T12:42:23.766Z,5.20
2022-10-24T12:44:51.389Z,4.85
2022-10-24T12:47:39.118Z,4.97
2022-10-24T12:50:21.747Z,4.88
2022-10-24T12:52:48.889Z,5.22
2022-10-24T12:55:51.190Z,5.53
2022-10-24T12:58:45.595Z,5.80
2022-10-24T13:01:39.030Z,5.45
2022-10-24T13:04:40.239Z,6.50
2022-10-24T13:07:48.341Z,5.75
2022-10-24T13:11:09.688Z,5.68
2022-10-24T13:14:08.994Z,5.63
2022-10-24T13:17:08.185Z,5.70
2022-10-24T13:19:36.625Z,5.60
2022-10-24T13:22:36.219Z,5.63
2022-10-24T13:25:33.545Z,6.00
2022-10-24T13:28:24.788Z,5.55
2022-10-24T13:31:17.839Z,6.07
2022-10-24T13:33:47.760Z,5.68
2022-10-24T13:36:28.522Z,5.43
2022-10-24T13:39:01.982Z,7.00
2022-10-24T13:41:39.483Z,6.97
2022-10-24T13:44:15.039Z,5.80
2022-10-24T13:47:07.761Z,6.28
2022-10-24T13:50:24.065Z,5.85
2022-10-24T13:52:57.801Z,5.70
2022-10-24T13:55:46.631Z,6.55
2022-10-24T13:58:44.359Z,5.25
2022-10-24T14:01:28.286Z,5.95
2022-10-24T14:03:57.484Z,6.93
2022-10-24T14:06:33.895Z,5.95
2022-10-24T14:09:10.388Z,6.75
2022-10-24T14:11:44.993Z,6.35
2022-10-24T14:14:40.189Z,6.13
2022-10-24T14:17:22.781Z,5.53
2022-10-24T14:20:13.442Z,7.32
2022-10-24T14:22:41.962Z,6.72
2022-10-24T14:25:36.560Z,6.70
2022-10-24T14:28:17.743Z,7.70
2022-10-24T14:31:01.553Z,8.25
2022-10-24T14:33:42.568Z,6.50
2022-10-24T14:36:10.367Z,7.25
2022-10-24T14:38:37.843Z,6.78
2022-10-24T14:41:10.198Z,6.90
2022-10-24T14:43:42.454Z,6.30
2022-10-24T14:46:12.802Z,6.75
2022-10-24T14:48:48.933Z,7.28
2022-10-24T14:51:43.128Z,6.00
2022-10-24T14:54:21.939Z,6.65
2022-10-24T14:56:50.391Z,7.70
2022-10-24T14:59:30.110Z,7.43
2022-10-24T15:02:03.556Z,8.45
2022-10-24T15:04:45.908Z,9.02
2022-10-24T15:10:00.286Z,8.40
2022-10-24T15:12:40.231Z,7.97
2022-10-24T15:15:31.903Z,9.52
2022-10-24T15:18:29.983Z,9.40
2022-10-24T15:21:14.188Z,10.45
2022-10-24T15:23:57.338Z,10.35
2022-10-24T15:26:45.002Z,11.00
2022-10-24T15:29:15.197Z,10.65
2022-10-24T15:31:48.752Z,10.57
2022-10-24T15:34:22.326Z,11.20
2022-10-24T15:36:52.019Z,11.85
2022-10-24T15:39:26.047Z,12.18
2022-10-24T15:41:54.242Z,11.77
2022-10-24T15:44:29.718Z,18.52
2022-10-24T15:46:57.577Z,17.27
2022-10-24T15:49:24.972Z,14.98
2022-10-24T15:51:52.255Z,13.88
2022-10-24T15:54:22.256Z,16.77
2022-10-24T15:56:52.363Z,16.02
2022-10-24T15:59:26.702Z,14.50
2022-10-24T16:02:00.499Z,15.27
2022-10-24T16:04:29.199Z,14.18
2022-10-24T16:06:59.170Z,14.02
2022-10-24T16:09:27.910Z,13.85
2022-10-24T16:11:55.792Z,14.20
2022-10-24T16:14:30.403Z,13.57
2022-10-24T16:17:00.314Z,14.23
2022-10-24T16:19:29.816Z,14.57
2022-10-24T16:22:01.050Z,15.73
2022-10-24T16:24:30.859Z,11.97
2022-10-24T16:26:58.015Z,13.80
2022-10-24T16:29:27.504Z,14.05
2022-10-24T16:31:54.575Z,15.00
2022-10-24T16:34:21.660Z,14.55
2022-10-24T16:36:54.736Z,14.25
2022-10-24T16:39:21.969Z,13.13
2022-10-24T16:41:54.430Z,13.70
2022-10-24T16:44:23.969Z,14.40
2022-10-24T16:46:55.470Z,13.23
2022-10-24T16:49:25.097Z,13.05
2022-10-24T16:51:52.292Z,12.73
2022-10-24T16:54:20.670Z,12.60
2022-10-24T16:56:53.621Z,12.88
2022-10-24T16:59:21.388Z,11.43
2022-10-24T17:01:48.605Z,12.57
2022-10-24T17:04:15.745Z,12.00
2022-10-24T17:06:42.790Z,13.95
2022-10-24T17:09:09.829Z,12.70
2022-10-24T17:11:45.377Z,13.68
2022-10-24T17:14:16.312Z,12.88
2022-10-24T17:16:44.416Z,12.13
2022-10-24T17:19:16.613Z,9.90
2022-10-24T17:21:48.599Z,10.90
2022-10-24T17:24:19.699Z,11.02
2022-10-24T17:26:48.657Z,9.90
2022-10-24T17:29:26.750Z,11.25
2022-10-24T17:31:55.106Z,10.57
2022-10-24T17:34:23.204Z,9.73
2022-10-24T17:37:14.344Z,10.88
2022-10-24T17:39:54.662Z,9.27
2022-10-24T17:42:22.443Z,9.30
2022-10-24T17:44:49.855Z,10.18
2022-10-24T17:47:17.362Z,10.13
2022-10-24T17:49:45.493Z,11.23
2022-10-24T17:52:19.957Z,12.75
2022-10-24T17:54:49.709Z,13.15
2022-10-24T17:57:16.877Z,13.63
2022-10-24T17:59:44.510Z,15.73
2022-10-24T18:02:15.214Z,13.85
2022-10-24T18:04:44.753Z,12.60
2022-10-24T18:07:12.071Z,12.07
2022-10-24T18:09:40.237Z,11.63
2022-10-24T18:12:10.719Z,10.23
2022-10-24T18:14:38.015Z,10.15
2022-10-24T18:17:09.012Z,9.65
2022-10-24T18:19:40.718Z,10.60
2022-10-24T18:22:07.846Z,10.35
2022-10-24T18:24:37.172Z,10.27
2022-10-24T18:27:06.495Z,10.23
2022-10-24T18:29:33.685Z,10.35
2022-10-24T18:32:03.460Z,10.18
2022-10-24T18:34:30.541Z,9.70
2022-10-24T18:36:57.645Z,11.63
2022-10-24T18:39:27.663Z,10.18
2022-10-24T18:42:03.759Z,9.85
2022-10-24T18:44:34.397Z,9.32
2022-10-24T18:47:05.651Z,8.60
2022-10-24T18:49:35.147Z,9.07
2022-10-24T18:52:48.898Z,9.02
2022-10-24T18:55:26.129Z,8.55
2022-10-24T18:57:54.384Z,11.77
2022-10-24T19:00:25.170Z,9.00
2022-10-24T19:03:30.097Z,9.63
2022-10-24T19:06:25.721Z,9.88
2022-10-24T19:08:53.036Z,8.10
2022-10-24T19:11:24.725Z,8.57
2022-10-24T19:13:52.122Z,8.48
2022-10-24T19:16:28.737Z,8.20
2022-10-24T19:19:00.755Z,8.18
2022-10-24T19:21:27.846Z,8.23
2022-10-24T19:23:55.100Z,10.15
2022-10-24T19:26:22.287Z,14.65
2022-10-24T19:28:49.698Z,15.05
2022-10-24T19:31:19.413Z,18.88
2022-10-24T19:33:50.393Z,20.10
2022-10-24T19:36:19.387Z,15.73
2022-10-24T19:38:55.744Z,14.73
2022-10-24T19:41:26.415Z,13.00
2022-10-24T19:43:57.120Z,11.40
2022-10-24T19:46:24.857Z,11.48
2022-10-24T19:48:53.385Z,10.88
2022-10-24T19:51:25.402Z,8.07
2022-10-24T19:53:53.017Z,8.25
2022-10-24T19:56:26.906Z,7.70
2022-10-24T19:58:55.511Z,10.40
2022-10-24T20:01:26.476Z,9.88
2022-10-24T20:03:56.421Z,10.48
2022-10-24T20:06:26.405Z,12.13
2022-10-24T20:08:54.002Z,12.55
2022-10-24T20:11:22.121Z,11.52
2022-10-24T20:13:53.116Z,9.90
2022-10-24T20:16:20.470Z,10.07
2022-10-24T20:18:47.985Z,11.23
2022-10-24T20:21:19.494Z,9.55
2022-10-24T20:23:48.409Z,9.18
2022-10-24T20:26:25.959Z,8.02
2022-10-24T20:28:55.579Z,8.60
2022-10-24T20:31:31.208Z,9.70
2022-10-24T20:34:07.785Z,8.80
2022-10-24T20:36:40.368Z,7.95
2022-10-24T20:39:13.871Z,8.63
2022-10-24T20:41:42.267Z,8.40
2022-10-24T20:44:09.988Z,8.40
2022-10-24T20:46:37.279Z,8.07
2022-10-24T20:49:04.627Z,7.63
2022-10-24T20:51:31.967Z,7.07
2022-10-24T20:54:07.218Z,7.07
2022-10-24T20:56:35.904Z,8.50
2022-10-24T20:59:09.316Z,7.25
2022-10-24T21:01:36.683Z,7.38
2022-10-24T21:04:03.903Z,7.03
2022-10-24T21:06:34.548Z,7.50
2022-10-24T21:09:11.763Z,6.45
2022-10-24T21:11:42.457Z,6.68
2022-10-24T21:14:14.565Z,6.68
2022-10-24T21:16:41.902Z,8.18
2022-10-24T21:19:08.961Z,6.45
2022-10-24T21:21:40.703Z,6.47
2022-10-24T21:24:08.341Z,6.45
2022-10-24T21:26:39.411Z,6.72
2022-10-24T21:29:31.262Z,6.65
2022-10-24T21:31:55.338Z,6.90
2022-10-24T21:34:23.148Z,6.70
2022-10-24T21:36:50.381Z,6.75
2022-10-24T21:39:22.311Z,6.32
2022-10-24T21:41:49.452Z,7.00
2022-10-24T21:44:19.106Z,8.00
2022-10-24T21:46:48.297Z,6.40
2022-10-24T21:49:15.414Z,6.55
2022-10-24T21:51:43.896Z,7.38
2022-10-24T21:54:19.760Z,6.47
2022-10-24T21:56:46.986Z,6.30
2022-10-24T21:59:19.728Z,6.45
2022-10-24T22:01:49.172Z,6.38
2022-10-24T22:04:19.935Z,6.20
2022-10-24T22:06:50.629Z,6.30
2022-10-24T22:09:23.827Z,6.82
2022-10-24T22:11:51.089Z,6.68
2022-10-24T22:14:21.094Z,6.32
2022-10-24T22:16:48.174Z,6.88
2022-10-24T22:19:16.143Z,5.80
2022-10-24T22:21:47.582Z,6.07
2022-10-24T22:24:21.621Z,6.55
2022-10-24T22:26:52.366Z,7.00
2022-10-24T22:29:23.412Z,6.50
2022-10-24T22:31:52.696Z,6.30
2022-10-24T22:34:25.989Z,6.65
2022-10-24T22:39:58.612Z,6.05
2022-10-24T22:42:28.678Z,6.15
2022-10-24T22:44:58.486Z,5.63
2022-10-24T22:48:03.137Z,6.38
2022-10-24T22:50:47.675Z,5.88
2022-10-24T22:53:18.487Z,6.05
2022-10-24T22:56:06.526Z,5.57
2022-10-24T22:58:34.084Z,5.50
2022-10-24T23:01:29.743Z,5.43
2022-10-24T23:04:06.212Z,6.38
2022-10-24T23:07:07.492Z,6.60
2022-10-24T23:09:34.521Z,5.80
2022-10-24T23:12:02.013Z,6.13
2022-10-24T23:14:29.532Z,5.70
2022-10-24T23:17:03.862Z,5.30
2022-10-24T23:19:32.698Z,6.22
2022-10-24T23:22:30.382Z,5.68
2022-10-24T23:25:01.011Z,5.35
2022-10-24T23:27:39.333Z,5.05
2022-10-24T23:30:20.454Z,5.22
2022-10-24T23:32:49.355Z,5.22
2022-10-24T23:35:19.698Z,5.82
2022-10-24T23:37:50.520Z,4.32
2022-10-24T23:40:17.491Z,4.35
2022-10-24T23:42:46.437Z,4.63
2022-10-24T23:45:16.273Z,5.13
2022-10-24T23:48:09.333Z,4.47
2022-10-24T23:51:31.109Z,4.60
2022-10-24T23:53:59.088Z,5.00
2022-10-24T23:56:32.548Z,5.05
2022-10-24T23:58:59.621Z,4.43
